[ ตารางข้อมูล ] [ Min-Max ] [ วันนี้4 ] [ วันนี้2 ] [ เทียบ3วัน A ] [ เทียบ4วัน B ]   

วันนี้2   [ ◀ ช่วงเก่ากว่า ] [ ช่วงที่ 295 ] [ ช่วงใหม่กว่า ▶ ] [ ล่าสุด ]    [ 3 ชั่วโมง ] [ 6 ชั่วโมง ] [ 12 ชั่วโมง ] [ 24 ชั่วโมง ]   วันนี้2

อุณภูมิตู้ Knockdown4529  ราย 3 ชั่วโมง  ที่วัดได้ ในช่วงวันเวลา 01/04/2026 (13:34) ถึง 01/04/2026 (16:34) 
ความชื้นในตู้ Knockdown4529  ราย 3 ชั่วโมง  ที่วัดได้ ในช่วงวันเวลา 01/04/2026 (13:34) ถึง 01/04/2026 (16:34) 

 
DS18B20SHTC3 
IDDate d/m/Y & Timedata1
สูง
data2
ต่ำ
data3
นอก
temp
pcb
hum
pcb
Time
 7858  01/04/2026 16:33:45  31.6  31.4  31.3  31.4  69.8  16:33 
 7857  01/04/2026 16:29:02  31.7  31.4  31.3  31.5  69.7  16:29 
 7856  01/04/2026 16:24:21  31.8  31.4  31.5  31.7  69.8  16:24 
 7855  01/04/2026 16:19:39  31.8  31.4  31.7  31.5  69.7  16:19 
 7854  01/04/2026 16:14:56  31.8  31.4  31.7  31.4  69.7  16:14 
 7853  01/04/2026 16:10:14  31.8  31.4  31.7  31.6  69.6  16:10 
 7852  01/04/2026 16:05:32  31.9  31.4  31.8  31.6  69.4  16:05 
 7851  01/04/2026 16:00:50  31.9  31.4  31.7  31.4  69.4  16:00 
 7850  01/04/2026 15:56:09  31.9  31.4  32.0  31.6  69.4  15:56 
 7849  01/04/2026 15:51:27  31.9  31.4  32.0  31.6  69.3  15:51 
 7848  01/04/2026 15:46:44  32.0  31.4  32.2  31.7  69.3  15:46 
 7847  01/04/2026 15:42:02  32.1  31.4  32.2  31.6  69.0  15:42 
 7846  01/04/2026 15:37:20  32.1  31.4  32.0  31.7  69.0  15:37 
 7845  01/04/2026 15:32:38  32.2  31.4  32.0  31.6  68.9  15:32 
 7844  01/04/2026 15:27:56  32.2  31.4  32.2  31.9  69.2  15:27 
 7843  01/04/2026 15:23:15  32.2  31.4  32.3  31.9  69.0  15:23 
 7842  01/04/2026 15:18:31  32.3  31.4  32.3  31.7  69.0  15:18 
 7841  01/04/2026 15:13:49  32.4  31.4  32.4  31.8  68.8  15:13 
 7840  01/04/2026 15:09:07  32.4  31.4  32.3  31.8  68.7  15:09 
 7839  01/04/2026 15:04:25  32.4  31.4  32.4  31.8  68.7  15:04 
 7838  01/04/2026 14:59:42  32.4  31.4  32.5  31.9  68.6  14:59 
 7837  01/04/2026 14:55:00  32.4  31.4  32.4  31.6  68.6  14:55 
 7836  01/04/2026 14:50:18  32.4  31.4  32.8  31.9  68.5  14:50 
 7835  01/04/2026 14:45:36  32.4  31.3  32.5  31.8  68.3  14:45 

Data every 5 minute.


ใช้เวลาประมวลผล 0.00191 วินาที